Terminal Aerodrome Forecast
Issued by NWS Missoula, MT

Home | Current Version | Previous Version | Text Only | Print | Product List | Glossary On
Versions: 1 2 3 4 5 6 7 8 9 10 11 12 13 14 15 16 17 18 19 20 21 22 23
105
FTUS45 KMSO 231902 AAA
TAFMSO
TAF AMD
KMSO 231902Z 2319/2418 30012G18KT P6SM BKN060
     FM240100 30008KT P6SM SCT150=

USA.gov is the U.S. government's official web portal to all federal, state and local government web resources and services.